createdAt,value
2023-03-04T00:00:15.475Z,55.02
2023-03-04T00:02:41.870Z,54.01
2023-03-04T00:05:08.256Z,53.68
2023-03-04T00:07:34.615Z,53.37
2023-03-04T00:10:00.964Z,55.92
2023-03-04T00:12:27.349Z,56.38
2023-03-04T00:14:53.712Z,55.63
2023-03-04T00:17:20.105Z,54.97
2023-03-04T00:19:46.553Z,57.78
2023-03-04T00:22:12.916Z,57.29
2023-03-04T00:24:39.303Z,59.12
2023-03-04T00:27:05.678Z,58.87
2023-03-04T00:29:32.029Z,58.50
2023-03-04T00:31:58.535Z,59.85
2023-03-04T00:34:24.998Z,59.24
2023-03-04T00:36:51.358Z,59.00
2023-03-04T00:39:17.756Z,57.99
2023-03-04T00:41:44.171Z,58.96
2023-03-04T00:44:10.539Z,58.80
2023-03-04T00:46:36.938Z,56.97
2023-03-04T00:49:03.354Z,57.34
2023-03-04T00:51:29.719Z,57.08
2023-03-04T00:53:56.070Z,58.87
2023-03-04T00:56:22.418Z,58.19
2023-03-04T00:58:48.818Z,57.42
2023-03-04T01:01:15.254Z,58.75
2023-03-04T01:03:41.675Z,57.95
2023-03-04T01:06:08.045Z,57.82
2023-03-04T01:08:34.434Z,57.91
2023-03-04T01:11:00.838Z,57.75
2023-03-04T01:13:27.195Z,58.29
2023-03-04T01:15:53.558Z,58.09
2023-03-04T01:18:19.966Z,58.12
2023-03-04T01:20:46.358Z,58.56
2023-03-04T01:23:12.736Z,58.43
2023-03-04T01:25:39.132Z,58.57
2023-03-04T01:28:05.486Z,58.04
2023-03-04T01:30:31.915Z,58.52
2023-03-04T01:32:58.272Z,56.90
2023-03-04T01:35:24.699Z,57.24
2023-03-04T01:37:51.115Z,57.53
2023-03-04T01:40:17.510Z,58.77
2023-03-04T01:42:43.897Z,58.76
2023-03-04T01:45:10.275Z,58.75
2023-03-04T01:47:36.647Z,59.16
2023-03-04T01:50:03.040Z,59.14
2023-03-04T01:52:29.464Z,58.75
2023-03-04T01:54:55.880Z,58.90
2023-03-04T01:57:22.284Z,58.07
2023-03-04T01:59:48.661Z,56.80
2023-03-04T02:02:15.054Z,56.89
2023-03-04T02:04:41.482Z,56.71
2023-03-04T02:07:07.860Z,56.46
2023-03-04T02:09:34.228Z,55.80
2023-03-04T02:12:00.626Z,56.14
2023-03-04T02:14:26.984Z,57.93
2023-03-04T02:16:53.335Z,57.13
2023-03-04T02:19:19.728Z,56.63
2023-03-04T02:21:46.092Z,56.47
2023-03-04T02:24:12.532Z,58.09
2023-03-04T02:26:38.888Z,58.13
2023-03-04T02:29:05.298Z,58.40
2023-03-04T02:31:31.767Z,58.61
2023-03-04T02:33:58.176Z,59.06
2023-03-04T02:36:24.540Z,57.69
2023-03-04T02:38:50.894Z,57.15
2023-03-04T02:41:17.663Z,56.87
2023-03-04T02:43:44.032Z,57.12
2023-03-04T02:46:10.430Z,57.43
2023-03-04T02:48:36.820Z,57.78
2023-03-04T02:51:03.174Z,57.62
2023-03-04T02:53:29.566Z,56.60
2023-03-04T02:55:55.964Z,56.44
2023-03-04T02:58:22.391Z,57.34
2023-03-04T03:00:48.774Z,56.28
2023-03-04T03:03:15.191Z,56.64
2023-03-04T03:05:41.593Z,57.74
2023-03-04T03:08:07.953Z,57.42
2023-03-04T03:10:34.367Z,57.80
2023-03-04T03:13:00.765Z,56.30
2023-03-04T03:15:27.131Z,56.01
2023-03-04T03:17:53.529Z,55.62
2023-03-04T03:20:19.910Z,55.94
2023-03-04T03:22:46.302Z,55.90
2023-03-04T03:25:12.707Z,57.41
2023-03-04T03:27:39.110Z,56.93
2023-03-04T03:30:05.524Z,58.07
2023-03-04T03:32:32.022Z,57.83
2023-03-04T03:34:58.481Z,58.19
2023-03-04T03:37:24.846Z,57.14
2023-03-04T03:39:51.237Z,56.04
2023-03-04T03:42:17.639Z,57.42
2023-03-04T03:44:43.998Z,58.94
2023-03-04T03:47:10.394Z,58.52
2023-03-04T03:49:36.753Z,57.24
2023-03-04T03:52:03.107Z,57.85
2023-03-04T03:54:29.456Z,57.54
2023-03-04T03:56:55.810Z,57.25
2023-03-04T03:59:22.151Z,56.89
2023-03-04T04:01:48.527Z,56.43
2023-03-04T04:04:14.913Z,56.33
2023-03-04T04:06:41.272Z,55.76
2023-03-04T04:09:07.616Z,55.64
2023-03-04T04:11:34.005Z,55.90
2023-03-04T04:14:00.386Z,55.16
2023-03-04T04:16:26.803Z,55.17
2023-03-04T04:18:53.214Z,54.60
2023-03-04T04:21:19.577Z,55.23
2023-03-04T04:23:45.952Z,54.82
2023-03-04T04:26:12.363Z,57.36
2023-03-04T04:28:38.770Z,59.19
2023-03-04T04:31:05.244Z,58.43
2023-03-04T04:33:31.619Z,56.77
2023-03-04T04:35:57.996Z,56.03
2023-03-04T04:38:24.352Z,55.82
2023-03-04T04:40:50.708Z,55.33
2023-03-04T04:43:17.068Z,55.49
2023-03-04T04:45:43.473Z,56.68
2023-03-04T04:48:09.911Z,58.56
2023-03-04T04:50:36.262Z,59.46
2023-03-04T04:53:02.658Z,58.51
2023-03-04T04:55:29.023Z,59.86
2023-03-04T04:57:55.413Z,59.78
2023-03-04T05:00:21.782Z,59.04
2023-03-04T05:02:48.178Z,60.43
2023-03-04T05:05:14.582Z,58.16
2023-03-04T05:07:40.955Z,58.11
2023-03-04T05:10:07.396Z,57.81
2023-03-04T05:12:33.776Z,59.56
2023-03-04T05:15:00.142Z,59.25
2023-03-04T05:17:26.499Z,59.53
2023-03-04T05:19:52.854Z,58.84
2023-03-04T05:22:19.202Z,59.68
2023-03-04T05:24:45.561Z,59.52
2023-03-04T05:27:11.949Z,58.98
2023-03-04T05:29:38.300Z,60.44
2023-03-04T05:32:04.684Z,60.69
2023-03-04T05:34:31.122Z,60.65
2023-03-04T05:36:57.530Z,59.95
2023-03-04T05:39:23.907Z,60.02
2023-03-04T05:41:50.299Z,60.21
2023-03-04T05:44:16.663Z,58.49
2023-03-04T05:46:43.090Z,58.73
2023-03-04T05:49:09.488Z,57.15
2023-03-04T05:51:35.885Z,60.12
2023-03-04T05:54:02.261Z,60.53
2023-03-04T05:56:28.612Z,59.19
2023-03-04T05:58:54.957Z,59.20
2023-03-04T06:01:21.306Z,57.96
2023-03-04T06:03:47.753Z,60.12
2023-03-04T06:06:14.176Z,58.38
2023-03-04T06:08:40.584Z,57.27
2023-03-04T06:11:06.939Z,56.82
2023-03-04T06:13:33.297Z,58.65
2023-03-04T06:15:59.672Z,56.97
2023-03-04T06:18:26.095Z,57.90
2023-03-04T06:20:52.506Z,58.78
2023-03-04T06:23:18.864Z,58.01
2023-03-04T06:25:45.211Z,56.63
2023-03-04T06:28:11.554Z,56.84
2023-03-04T06:30:37.922Z,55.65
2023-03-04T06:33:04.342Z,56.01
2023-03-04T06:35:30.732Z,56.47
2023-03-04T06:37:57.153Z,56.00
2023-03-04T06:40:23.557Z,58.22
2023-03-04T06:42:49.973Z,57.33
2023-03-04T06:45:16.336Z,55.91
2023-03-04T06:47:42.732Z,58.00
2023-03-04T06:50:09.086Z,56.38
2023-03-04T06:52:35.464Z,58.78
2023-03-04T06:55:01.817Z,57.67
2023-03-04T06:57:28.232Z,58.26
2023-03-04T06:59:54.601Z,58.65
2023-03-04T07:02:20.975Z,58.49
2023-03-04T07:04:47.321Z,58.61
2023-03-04T07:07:13.721Z,59.52
2023-03-04T07:09:40.115Z,60.05
2023-03-04T07:12:06.471Z,60.76
2023-03-04T07:14:32.841Z,58.74
2023-03-04T07:16:59.195Z,58.49
2023-03-04T07:19:25.565Z,55.94
2023-03-04T07:21:51.912Z,57.72
2023-03-04T07:24:18.315Z,56.40
2023-03-04T07:26:44.711Z,54.49
2023-03-04T07:29:11.131Z,57.02
2023-03-04T07:31:37.572Z,57.95
2023-03-04T07:34:03.972Z,56.20
2023-03-04T07:36:30.329Z,57.09
2023-03-04T07:38:56.690Z,57.25
2023-03-04T07:41:23.102Z,57.83
2023-03-04T07:43:49.500Z,56.82
2023-03-04T07:46:15.921Z,57.92
2023-03-04T07:48:42.270Z,57.38
2023-03-04T07:51:08.645Z,57.54
2023-03-04T07:53:35.106Z,55.29
2023-03-04T07:56:02.729Z,54.80
2023-03-04T07:58:29.199Z,55.97
2023-03-04T08:00:55.545Z,55.71
2023-03-04T08:03:21.910Z,56.79
2023-03-04T08:05:48.296Z,55.61
2023-03-04T08:08:16.401Z,56.61
2023-03-04T08:10:43.757Z,55.08
2023-03-04T08:13:10.145Z,55.01
2023-03-04T08:15:36.560Z,55.26
2023-03-04T08:18:02.973Z,55.48
2023-03-04T08:20:29.367Z,54.82
2023-03-04T08:22:55.767Z,56.75
2023-03-04T08:25:22.120Z,56.04
2023-03-04T08:27:48.507Z,57.00
2023-03-04T08:30:14.902Z,55.75
2023-03-04T08:32:41.355Z,57.10
2023-03-04T08:35:07.817Z,56.19
2023-03-04T08:37:34.230Z,55.19
2023-03-04T08:40:00.725Z,55.15
2023-03-04T08:42:27.098Z,56.23
2023-03-04T08:44:53.502Z,55.84
2023-03-04T08:47:19.909Z,55.85
2023-03-04T08:49:46.304Z,55.57
2023-03-04T08:52:12.702Z,54.81
2023-03-04T08:54:39.103Z,53.60
2023-03-04T08:57:05.460Z,54.01
2023-03-04T08:59:31.845Z,52.73
2023-03-04T09:01:58.275Z,52.69
2023-03-04T09:04:24.697Z,52.67
2023-03-04T09:06:52.873Z,51.98
2023-03-04T09:09:20.318Z,51.15
2023-03-04T09:11:46.779Z,54.07
2023-03-04T09:14:13.164Z,55.41
2023-03-04T09:16:39.593Z,55.49
2023-03-04T09:19:05.967Z,56.21
2023-03-04T09:21:32.367Z,54.67
2023-03-04T09:23:58.762Z,55.27
2023-03-04T09:26:25.176Z,55.86
2023-03-04T09:28:51.584Z,55.27
2023-03-04T09:31:18.014Z,52.52
2023-03-04T09:33:44.432Z,52.55
2023-03-04T09:36:10.842Z,53.25
2023-03-04T09:38:37.234Z,53.29
2023-03-04T09:41:03.601Z,52.61
2023-03-04T09:43:30.091Z,54.93
2023-03-04T09:45:56.511Z,53.76
2023-03-04T09:48:22.903Z,54.66
2023-03-04T09:50:49.262Z,54.08
2023-03-04T09:53:15.660Z,54.31
2023-03-04T09:55:42.028Z,53.48
2023-03-04T09:58:08.418Z,55.20
2023-03-04T10:00:35.962Z,56.24
2023-03-04T10:03:02.337Z,55.97
2023-03-04T10:05:28.725Z,55.25
2023-03-04T10:07:55.093Z,55.37
2023-03-04T10:10:21.560Z,54.94
2023-03-04T10:12:48.081Z,54.83
2023-03-04T10:15:14.483Z,55.39
2023-03-04T10:17:40.885Z,53.28
2023-03-04T10:20:07.292Z,52.73
2023-03-04T10:22:33.741Z,53.70
2023-03-04T10:25:00.160Z,53.15
2023-03-04T10:27:26.583Z,52.38
2023-03-04T10:29:52.943Z,54.71
2023-03-04T10:32:19.466Z,54.48
2023-03-04T10:34:45.890Z,52.71
2023-03-04T10:37:12.384Z,53.58
2023-03-04T10:39:38.884Z,54.72
2023-03-04T10:42:05.408Z,55.38
2023-03-04T10:44:31.860Z,54.38
2023-03-04T10:46:58.259Z,53.22
2023-03-04T10:49:24.622Z,52.28
2023-03-04T10:51:50.979Z,51.91
2023-03-04T10:54:17.330Z,51.31
2023-03-04T10:56:43.692Z,51.64
2023-03-04T10:59:10.118Z,53.59
2023-03-04T11:01:36.481Z,55.35
2023-03-04T11:04:02.914Z,52.30
2023-03-04T11:06:29.302Z,51.94
2023-03-04T11:08:55.702Z,53.38
2023-03-04T11:11:22.061Z,52.27
2023-03-04T11:13:48.464Z,52.38
2023-03-04T11:16:14.875Z,51.72
2023-03-04T11:18:41.265Z,52.39
2023-03-04T11:21:07.689Z,51.30
2023-03-04T11:23:34.052Z,52.28
2023-03-04T11:26:00.455Z,52.09
2023-03-04T11:28:26.880Z,52.30
2023-03-04T11:30:53.311Z,51.02
2023-03-04T11:33:19.707Z,50.00
2023-03-04T11:35:46.158Z,50.81
2023-03-04T11:38:12.536Z,52.03
2023-03-04T11:40:39.002Z,50.78
2023-03-04T11:43:05.441Z,51.35
2023-03-04T11:45:33.835Z,52.47
2023-03-04T11:48:00.447Z,51.79
2023-03-04T11:50:26.811Z,51.39
2023-03-04T11:52:53.366Z,52.43
2023-03-04T11:55:19.795Z,52.37
2023-03-04T11:57:46.373Z,51.63
2023-03-04T12:00:12.736Z,50.21
2023-03-04T12:02:39.135Z,49.44
2023-03-04T12:05:05.503Z,50.16
2023-03-04T12:07:31.917Z,48.41
2023-03-04T12:09:58.284Z,49.89
2023-03-04T12:12:24.700Z,50.94
2023-03-04T12:14:51.103Z,50.07
2023-03-04T12:17:17.491Z,48.36
2023-03-04T12:19:43.851Z,47.85
2023-03-04T12:22:10.194Z,48.70
2023-03-04T12:24:36.563Z,48.11
2023-03-04T12:27:02.932Z,48.79
2023-03-04T12:29:29.346Z,48.49
2023-03-04T12:31:55.785Z,49.32
2023-03-04T12:34:22.209Z,48.69
2023-03-04T12:36:48.611Z,47.70
2023-03-04T12:39:14.967Z,49.00
2023-03-04T12:41:41.369Z,47.85
2023-03-04T12:44:07.836Z,47.62
2023-03-04T12:46:34.237Z,48.01
2023-03-04T12:49:00.678Z,49.61
2023-03-04T12:51:27.076Z,47.68
2023-03-04T12:53:53.507Z,47.17
2023-03-04T12:56:19.929Z,47.73
2023-03-04T12:58:46.296Z,45.88
2023-03-04T13:01:12.683Z,46.85
2023-03-04T13:03:39.102Z,48.21
2023-03-04T13:06:05.494Z,46.97
2023-03-04T13:08:31.852Z,46.10
2023-03-04T13:10:58.361Z,47.58
2023-03-04T13:13:24.787Z,48.29
2023-03-04T13:15:51.210Z,46.90
2023-03-04T13:18:17.639Z,45.40
2023-03-04T13:20:44.034Z,45.11
2023-03-04T13:23:10.421Z,46.47
2023-03-04T13:25:36.800Z,44.98
2023-03-04T13:28:03.203Z,46.99
2023-03-04T13:30:29.587Z,46.45
2023-03-04T13:32:55.959Z,46.11
2023-03-04T13:35:22.332Z,47.96
2023-03-04T13:37:48.748Z,46.94
2023-03-04T13:40:15.192Z,46.35
2023-03-04T13:42:41.578Z,44.93
2023-03-04T13:45:08.015Z,47.36
2023-03-04T13:47:34.436Z,43.88
2023-03-04T13:50:00.798Z,47.42
2023-03-04T13:52:27.197Z,45.09
2023-03-04T13:54:53.618Z,43.80
2023-03-04T13:57:20.033Z,43.42
2023-03-04T13:59:46.409Z,45.59
2023-03-04T14:02:12.809Z,43.80
2023-03-04T14:04:39.224Z,43.23
2023-03-04T14:07:05.575Z,42.47
2023-03-04T14:09:31.929Z,44.03
2023-03-04T14:11:58.321Z,44.59
2023-03-04T14:14:24.835Z,44.11
2023-03-04T14:16:51.258Z,42.22
2023-03-04T14:19:17.632Z,42.03
2023-03-04T14:21:44.027Z,42.08
2023-03-04T14:24:10.419Z,44.39
2023-03-04T14:26:36.787Z,43.18
2023-03-04T14:29:03.130Z,45.06
2023-03-04T14:31:29.589Z,40.56
2023-03-04T14:33:56.009Z,40.92
2023-03-04T14:36:22.397Z,42.51
2023-03-04T14:38:48.817Z,39.81
2023-03-04T14:41:15.187Z,42.67
2023-03-04T14:43:41.587Z,45.43
2023-03-04T14:46:08.002Z,43.51
2023-03-04T14:48:34.473Z,42.93
2023-03-04T14:51:00.882Z,41.30
2023-03-04T14:53:27.286Z,43.77
2023-03-04T14:55:53.682Z,42.88
2023-03-04T14:58:20.090Z,42.04
2023-03-04T15:00:46.496Z,42.82
2023-03-04T15:03:15.322Z,42.19
2023-03-04T15:05:41.934Z,43.26
2023-03-04T15:08:08.292Z,42.24
2023-03-04T15:10:34.655Z,42.13
2023-03-04T15:13:01.036Z,41.89
2023-03-04T15:15:27.543Z,41.46
2023-03-04T15:17:53.895Z,41.38
2023-03-04T15:20:20.274Z,41.21
2023-03-04T15:22:46.631Z,42.66
2023-03-04T15:25:12.988Z,39.25
2023-03-04T15:27:39.336Z,41.40
2023-03-04T15:30:05.716Z,40.92
2023-03-04T15:32:32.142Z,43.09
2023-03-04T15:34:58.595Z,41.85
2023-03-04T15:37:24.988Z,39.67
2023-03-04T15:39:51.332Z,40.51
2023-03-04T15:42:17.730Z,41.30
2023-03-04T15:44:44.127Z,41.96
2023-03-04T15:47:10.476Z,41.74
2023-03-04T15:49:36.817Z,42.25
2023-03-04T15:52:03.190Z,41.52
2023-03-04T15:54:29.576Z,41.52
2023-03-04T15:56:55.916Z,42.36
2023-03-04T15:59:22.330Z,40.86
2023-03-04T16:01:48.728Z,40.49
2023-03-04T16:04:15.147Z,40.61
2023-03-04T16:06:41.548Z,42.02
2023-03-04T16:09:10.303Z,41.16
2023-03-04T16:11:36.930Z,41.29
2023-03-04T16:14:03.307Z,40.99
2023-03-04T16:16:29.656Z,41.36
2023-03-04T16:18:56.008Z,41.63
2023-03-04T16:21:22.374Z,43.02
2023-03-04T16:23:48.768Z,43.02
2023-03-04T16:26:15.140Z,42.94
2023-03-04T16:28:41.496Z,43.32
2023-03-04T16:31:07.874Z,44.00
2023-03-04T16:33:34.280Z,44.00
2023-03-04T16:36:00.760Z,44.69
2023-03-04T16:38:27.141Z,44.37
2023-03-04T16:40:53.535Z,44.22
2023-03-04T16:43:19.933Z,44.45
2023-03-04T16:45:46.359Z,47.21
2023-03-04T16:48:12.780Z,46.34
2023-03-04T16:50:39.204Z,46.30
2023-03-04T16:53:05.626Z,46.15
2023-03-04T16:55:32.022Z,46.17
2023-03-04T16:57:58.397Z,45.48
2023-03-04T17:00:24.797Z,44.57
2023-03-04T17:02:51.230Z,44.80
2023-03-04T17:05:17.610Z,44.78
2023-03-04T17:07:43.996Z,44.43
2023-03-04T17:10:10.393Z,44.80
2023-03-04T17:12:36.798Z,45.09
2023-03-04T17:15:03.151Z,44.43
2023-03-04T17:17:29.538Z,45.26
2023-03-04T17:19:55.901Z,44.94
2023-03-04T17:22:22.268Z,44.82
2023-03-04T17:24:48.634Z,44.12
2023-03-04T17:27:15.017Z,45.04
2023-03-04T17:29:41.422Z,45.67
2023-03-04T17:32:07.873Z,45.43
2023-03-04T17:34:34.248Z,45.34
2023-03-04T17:37:00.594Z,45.90
2023-03-04T17:39:26.982Z,45.84
2023-03-04T17:41:53.415Z,45.52
2023-03-04T17:44:19.821Z,45.86
2023-03-04T17:46:46.205Z,46.44
2023-03-04T17:49:12.624Z,46.20
2023-03-04T17:51:38.971Z,46.09
2023-03-04T17:54:05.325Z,46.24
2023-03-04T17:56:31.684Z,46.36
2023-03-04T17:58:58.076Z,46.28
2023-03-04T18:01:24.492Z,46.76
2023-03-04T18:03:50.890Z,46.19
2023-03-04T18:06:17.281Z,46.62
2023-03-04T18:08:43.648Z,47.03
2023-03-04T18:11:10.049Z,47.28
2023-03-04T18:13:36.409Z,47.48
2023-03-04T18:16:02.847Z,47.28
2023-03-04T18:18:29.285Z,48.16
2023-03-04T18:20:55.837Z,47.94
2023-03-04T18:23:22.238Z,48.77
2023-03-04T18:25:48.636Z,48.74
2023-03-04T18:28:15.035Z,49.09
2023-03-04T18:30:41.434Z,49.66
2023-03-04T18:33:07.825Z,50.52
2023-03-04T18:35:34.311Z,50.21
2023-03-04T18:38:00.713Z,50.00
2023-03-04T18:40:27.186Z,49.73
2023-03-04T18:42:53.548Z,50.05
2023-03-04T18:45:19.904Z,49.81
2023-03-04T18:47:46.290Z,49.46
2023-03-04T18:50:12.685Z,49.75
2023-03-04T18:52:39.058Z,50.09
2023-03-04T18:55:05.470Z,49.27
2023-03-04T18:57:31.896Z,50.62
2023-03-04T18:59:58.294Z,49.83
2023-03-04T19:02:24.772Z,49.89
2023-03-04T19:04:51.184Z,50.23
2023-03-04T19:07:17.556Z,50.08
2023-03-04T19:09:43.951Z,50.93
2023-03-04T19:12:10.318Z,50.88
2023-03-04T19:14:36.702Z,50.54
2023-03-04T19:17:03.070Z,50.71
2023-03-04T19:19:29.460Z,50.70
2023-03-04T19:21:55.868Z,51.39
2023-03-04T19:24:22.220Z,51.85
2023-03-04T19:26:48.614Z,51.61
2023-03-04T19:29:15.000Z,52.11
2023-03-04T19:31:41.684Z,51.94
2023-03-04T19:34:08.063Z,51.77
2023-03-04T19:36:34.475Z,52.08
2023-03-04T19:39:00.849Z,51.58
2023-03-04T19:41:27.240Z,51.91
2023-03-04T19:43:53.632Z,52.89
2023-03-04T19:46:20.019Z,52.56
2023-03-04T19:48:46.447Z,53.09
2023-03-04T19:51:12.809Z,53.37
2023-03-04T19:53:39.209Z,53.07
2023-03-04T19:56:05.581Z,54.24
2023-03-04T19:58:31.932Z,54.22
2023-03-04T20:00:58.305Z,55.19
2023-03-04T20:03:24.658Z,54.54
2023-03-04T20:05:51.054Z,54.45
2023-03-04T20:08:17.422Z,54.56
2023-03-04T20:10:43.818Z,54.66
2023-03-04T20:13:10.237Z,54.75
2023-03-04T20:15:36.607Z,54.32
2023-03-04T20:18:02.971Z,54.28
2023-03-04T20:20:29.352Z,54.66
2023-03-04T20:22:55.697Z,55.10
2023-03-04T20:25:22.032Z,54.81
2023-03-04T20:27:48.379Z,54.48
2023-03-04T20:30:14.849Z,54.22
2023-03-04T20:32:41.228Z,53.55
2023-03-04T20:35:07.575Z,53.67
2023-03-04T20:37:33.960Z,53.92
2023-03-04T20:40:00.330Z,54.47
2023-03-04T20:42:26.674Z,55.36
2023-03-04T20:44:53.074Z,55.57
2023-03-04T20:47:19.478Z,54.68
2023-03-04T20:49:45.884Z,54.99
2023-03-04T20:52:12.239Z,55.31
2023-03-04T20:54:38.636Z,55.34
2023-03-04T20:57:05.035Z,56.58
2023-03-04T20:59:31.375Z,56.24
2023-03-04T21:01:57.803Z,55.91
2023-03-04T21:04:24.183Z,55.73
2023-03-04T21:06:50.536Z,56.00
2023-03-04T21:09:16.895Z,55.75
2023-03-04T21:11:43.240Z,55.41
2023-03-04T21:14:09.628Z,55.17
2023-03-04T21:16:36.024Z,55.25
2023-03-04T21:19:02.391Z,55.56
2023-03-04T21:21:28.757Z,55.38
2023-03-04T21:23:55.169Z,55.56
2023-03-04T21:26:21.554Z,55.93
2023-03-04T21:28:47.957Z,55.79
2023-03-04T21:31:14.426Z,55.66
2023-03-04T21:33:40.853Z,56.22
2023-03-04T21:36:07.264Z,56.61
2023-03-04T21:38:33.658Z,56.83
2023-03-04T21:41:00.026Z,57.21
2023-03-04T21:43:26.373Z,57.07
2023-03-04T21:45:52.768Z,57.28
2023-03-04T21:48:19.143Z,57.61
2023-03-04T21:50:45.689Z,56.78
2023-03-04T21:53:12.115Z,56.29
2023-03-04T21:55:38.516Z,55.80
2023-03-04T21:58:04.875Z,56.30
2023-03-04T22:00:31.447Z,55.69
2023-03-04T22:02:57.844Z,55.78
2023-03-04T22:05:24.188Z,55.48
2023-03-04T22:07:50.574Z,55.75
2023-03-04T22:10:16.932Z,56.23
2023-03-04T22:12:43.332Z,55.58
2023-03-04T22:15:09.764Z,55.59
2023-03-04T22:17:36.152Z,56.00
2023-03-04T22:20:02.555Z,55.14
2023-03-04T22:22:28.923Z,55.61
2023-03-04T22:24:55.272Z,56.10
2023-03-04T22:27:21.663Z,56.45
2023-03-04T22:29:48.022Z,56.44
2023-03-04T22:32:14.462Z,55.21
2023-03-04T22:34:40.868Z,55.25
2023-03-04T22:37:07.259Z,54.83
2023-03-04T22:39:33.661Z,55.45
2023-03-04T22:42:00.018Z,54.80
2023-03-04T22:44:26.372Z,55.29
2023-03-04T22:46:52.720Z,55.63
2023-03-04T22:49:19.141Z,55.99
2023-03-04T22:51:45.557Z,55.81
2023-03-04T22:54:11.903Z,55.32
2023-03-04T22:56:38.254Z,55.54
2023-03-04T22:59:04.613Z,55.14
2023-03-04T23:01:31.018Z,55.56
2023-03-04T23:03:57.434Z,55.05
2023-03-04T23:06:23.831Z,55.51
2023-03-04T23:08:50.283Z,55.25
2023-03-04T23:11:16.647Z,55.40
2023-03-04T23:13:43.071Z,55.62
2023-03-04T23:16:09.610Z,55.23
2023-03-04T23:18:36.112Z,55.60
2023-03-04T23:21:02.513Z,55.71
2023-03-04T23:23:28.913Z,55.32
2023-03-04T23:25:55.283Z,55.36
2023-03-04T23:28:21.630Z,56.25
2023-03-04T23:30:48.042Z,56.94
2023-03-04T23:33:14.433Z,57.29
2023-03-04T23:35:40.930Z,56.79
2023-03-04T23:38:07.367Z,56.58
2023-03-04T23:40:33.719Z,56.54
2023-03-04T23:43:00.108Z,56.33
2023-03-04T23:45:26.469Z,56.55
2023-03-04T23:47:52.817Z,56.81
2023-03-04T23:50:19.160Z,57.04
2023-03-04T23:52:45.513Z,56.45
2023-03-04T23:55:11.859Z,56.07
2023-03-04T23:57:38.233Z,55.20
